Time;durP1;ratioP1;P1;durP2;ratioP2;P2;SDS_P1;SDS_P2;PMS_P1;PMS_P2;Temp;Humidity;BMP_temperature;BMP_pressure;BME280_temperature;BME280_humidity;BME280_pressure;Samples;Min_cycle;Max_cycle;Signal;HPM_P1;HPM_P2
2024/03/13 00:02:04;;;;;;;1.92;1.75;;;7.00;99.90;;;;;;4966796;28;20034;-79
2024/03/13 00:04:41;;;;;;;1.50;1.40;;;7.00;99.90;;;;;;4967078;28;20039;-79
2024/03/13 00:07:10;;;;;;;2.05;1.55;;;7.00;99.90;;;;;;4964965;28;20031;-79
2024/03/13 00:09:46;;;;;;;1.65;1.55;;;7.00;99.90;;;;;;4966761;28;20461;-79
2024/03/13 00:12:16;;;;;;;3.03;1.40;;;7.00;99.90;;;;;;4962361;28;20027;-78
2024/03/13 00:14:52;;;;;;;0.70;0.70;;;7.00;99.90;;;;;;4959866;28;20031;-79
2024/03/13 00:17:20;;;;;;;3.88;2.38;;;7.00;99.90;;;;;;4963428;28;20034;-79
2024/03/13 00:19:50;;;;;;;1.00;1.00;;;7.00;99.90;;;;;;4967238;28;20064;-78
2024/03/13 00:22:20;;;;;;;0.85;0.82;;;7.00;99.90;;;;;;4969839;28;20030;-78
2024/03/13 00:24:54;;;;;;;1.35;1.13;;;7.00;99.90;;;;;;4947003;28;20047;-78
2024/03/13 00:27:20;;;;;;;3.20;1.88;;;7.00;99.90;;;;;;4960456;28;20041;-78
2024/03/13 00:29:48;;;;;;;0.20;0.20;;;7.00;99.90;;;;;;4962035;28;20487;-78
2024/03/13 00:32:16;;;;;;;2.22;1.35;;;7.00;99.90;;;;;;4962266;28;20038;-79
2024/03/13 00:34:45;;;;;;;1.13;1.13;;;7.00;99.90;;;;;;4968128;28;20466;-79
2024/03/13 00:37:12;;;;;;;1.23;0.85;;;7.00;99.90;;;;;;4964026;28;20420;-78
2024/03/13 00:39:38;;;;;;;1.10;1.00;;;6.90;99.90;;;;;;4920476;28;20043;-80
2024/03/13 00:42:11;;;;;;;2.30;1.58;;;6.90;99.90;;;;;;4960420;28;20036;-79
2024/03/13 00:44:41;;;;;;;0.82;0.70;;;6.90;99.90;;;;;;4962233;28;20058;-79
2024/03/13 00:47:09;;;;;;;1.27;0.63;;;6.90;99.90;;;;;;4947638;28;20050;-78
2024/03/13 00:49:37;;;;;;;0.63;0.63;;;6.90;99.90;;;;;;4963822;28;20051;-79
2024/03/13 00:52:04;;;;;;;0.50;0.50;;;6.80;99.90;;;;;;4963532;28;20098;-78
2024/03/13 00:54:31;;;;;;;0.57;0.57;;;6.80;99.90;;;;;;4967133;28;20030;-78
2024/03/13 00:56:57;;;;;;;0.13;0.13;;;6.80;99.90;;;;;;4958704;28;20405;-77
2024/03/13 00:59:26;;;;;;;0.50;0.50;;;6.80;99.90;;;;;;4964380;28;20043;-79
2024/03/13 01:01:55;;;;;;;0.98;0.85;;;6.70;99.90;;;;;;4968083;28;20040;-78
2024/03/13 01:04:24;;;;;;;1.27;0.98;;;6.80;99.90;;;;;;4961515;28;20034;-77
2024/03/13 01:06:51;;;;;;;0.65;0.65;;;6.70;99.90;;;;;;4960188;28;20559;-78
2024/03/13 01:09:19;;;;;;;0.55;0.55;;;6.70;99.90;;;;;;4961312;28;20726;-78
2024/03/13 01:11:49;;;;;;;0.63;0.63;;;6.70;99.90;;;;;;4963602;28;20047;-78
2024/03/13 01:14:19;;;;;;;0.52;0.52;;;6.70;99.90;;;;;;4960676;28;20046;-79
2024/03/13 01:16:52;;;;;;;0.10;0.10;;;6.70;99.90;;;;;;4965181;28;20046;-78
2024/03/13 01:19:22;;;;;;;0.28;0.28;;;6.70;99.90;;;;;;4963142;28;20035;-78
2024/03/13 01:21:53;;;;;;;0.38;0.38;;;6.70;99.90;;;;;;4957639;28;20046;-77
2024/03/13 01:24:20;;;;;;;2.10;0.90;;;6.70;99.90;;;;;;4958674;28;20393;-78
2024/03/13 01:26:49;;;;;;;0.20;0.20;;;6.70;99.90;;;;;;4965792;28;20034;-78
2024/03/13 01:29:16;;;;;;;0.20;0.20;;;6.70;99.90;;;;;;4960193;28;20058;-78
2024/03/13 01:31:42;;;;;;;1.10;0.68;;;6.70;99.90;;;;;;4964052;28;20476;-79
2024/03/13 01:34:09;;;;;;;0.93;0.63;;;6.70;99.90;;;;;;4965857;28;20035;-79
2024/03/13 01:39:28;;;;;;;0.63;0.63;;;6.70;99.90;;;;;;4958139;28;20039;-78
2024/03/13 01:56:26;;;;;;;0.45;0.45;;;6.70;99.90;;;;;;4956757;28;20050;-79
2024/03/13 01:59:09;;;;;;;0.28;0.28;;;6.70;99.90;;;;;;4964625;28;20046;-80
2024/03/13 02:04:20;;;;;;;0.63;0.63;;;6.80;99.90;;;;;;4963437;28;20772;-80
2024/03/13 02:06:47;;;;;;;0.98;0.88;;;6.70;99.90;;;;;;4964876;28;20044;-80
2024/03/13 02:09:13;;;;;;;1.27;0.85;;;6.70;99.90;;;;;;4967208;28;20035;-80
2024/03/13 02:11:39;;;;;;;0.10;0.10;;;6.70;99.90;;;;;;4944195;28;20066;-80
2024/03/13 02:14:06;;;;;;;7.53;1.75;;;6.70;99.90;;;;;;4941571;28;20043;-80
2024/03/13 02:16:32;;;;;;;0.10;0.10;;;6.70;99.90;;;;;;4942380;28;20039;-81
2024/03/13 02:19:00;;;;;;;0.30;0.28;;;6.80;99.90;;;;;;4967832;28;20058;-79
2024/03/13 02:21:26;;;;;;;1.58;1.33;;;6.70;99.90;;;;;;4971174;28;20034;-80
2024/03/13 02:23:53;;;;;;;0.20;0.20;;;6.80;99.90;;;;;;4967214;28;20058;-80
2024/03/13 02:26:19;;;;;;;0.52;0.52;;;6.70;99.90;;;;;;4964874;28;20027;-80
2024/03/13 02:28:46;;;;;;;2.15;0.70;;;6.70;99.90;;;;;;4955349;28;20042;-80
2024/03/13 02:31:12;;;;;;;2.75;0.77;;;6.80;99.90;;;;;;4948115;28;20031;-79
2024/03/13 02:33:38;;;;;;;0.30;0.30;;;6.80;99.90;;;;;;4947874;28;20039;-80
2024/03/13 02:36:05;;;;;;;3.45;0.38;;;6.80;99.90;;;;;;4955980;28;20042;-80
2024/03/13 02:38:31;;;;;;;0.88;0.82;;;6.80;99.90;;;;;;4945722;28;20049;-80
2024/03/13 02:40:58;;;;;;;2.17;0.95;;;6.80;99.90;;;;;;4939246;28;20043;-81
2024/03/13 02:43:24;;;;;;;9.02;0.70;;;6.80;99.90;;;;;;4962338;28;20062;-81
2024/03/13 02:45:52;;;;;;;0.40;0.40;;;6.80;99.90;;;;;;4933427;28;20062;-80
2024/03/13 02:48:19;;;;;;;0.35;0.35;;;6.80;99.90;;;;;;4966705;28;20217;-80
2024/03/13 02:50:46;;;;;;;0.30;0.30;;;6.80;99.90;;;;;;4963502;28;20034;-80
2024/03/13 02:53:12;;;;;;;0.28;0.28;;;6.80;99.90;;;;;;4932667;28;20035;-80
2024/03/13 02:55:39;;;;;;;1.75;0.88;;;6.80;99.90;;;;;;4962920;28;20039;-79
2024/03/13 02:58:06;;;;;;;0.25;0.25;;;6.80;99.90;;;;;;4961997;28;20035;-80
2024/03/13 03:00:32;;;;;;;2.05;1.17;;;6.80;99.90;;;;;;4967409;28;20058;-81
2024/03/13 03:02:58;;;;;;;0.40;0.35;;;6.80;99.90;;;;;;4953555;28;20039;-80
2024/03/13 03:05:24;;;;;;;0.30;0.30;;;6.80;99.90;;;;;;4940405;28;20058;-80
2024/03/13 03:07:51;;;;;;;0.40;0.25;;;6.80;99.90;;;;;;4947209;28;20035;-80
2024/03/13 03:10:17;;;;;;;0.32;0.32;;;6.80;99.90;;;;;;4959813;28;20046;-80
2024/03/13 03:12:44;;;;;;;0.20;0.20;;;6.80;99.90;;;;;;4965162;28;20389;-80
2024/03/13 03:15:10;;;;;;;0.28;0.28;;;6.80;99.90;;;;;;4960868;28;20046;-80
2024/03/13 03:17:37;;;;;;;1.02;0.93;;;6.80;99.90;;;;;;4966541;28;20043;-80
2024/03/13 03:20:03;;;;;;;1.38;0.75;;;6.80;99.90;;;;;;4954605;28;20046;-80
2024/03/13 03:22:30;;;;;;;0.55;0.55;;;6.80;99.90;;;;;;4956562;28;20053;-80
2024/03/13 03:24:56;;;;;;;0.60;0.60;;;6.80;99.90;;;;;;4945368;28;20066;-80
2024/03/13 03:27:24;;;;;;;0.50;0.50;;;6.80;99.90;;;;;;4925412;28;20039;-80
2024/03/13 03:29:52;;;;;;;0.30;0.30;;;6.80;99.90;;;;;;4940434;28;20039;-80
2024/03/13 03:32:21;;;;;;;2.05;1.40;;;6.80;99.90;;;;;;4954758;28;20046;-80
2024/03/13 03:34:48;;;;;;;0.90;0.82;;;6.80;99.90;;;;;;4938499;28;20051;-80
2024/03/13 03:37:15;;;;;;;0.77;0.77;;;6.80;99.90;;;;;;4951539;28;20035;-79
2024/03/13 03:39:41;;;;;;;0.60;0.60;;;6.90;99.90;;;;;;4959810;28;20042;-80
2024/03/13 03:42:07;;;;;;;0.80;0.80;;;6.80;99.90;;;;;;4952549;28;20035;-80
2024/03/13 03:44:35;;;;;;;0.20;0.20;;;6.90;99.90;;;;;;4944664;28;20488;-80
2024/03/13 03:47:01;;;;;;;0.45;0.45;;;6.80;99.90;;;;;;4960160;28;20030;-79
2024/03/13 03:49:28;;;;;;;6.13;1.27;;;6.80;99.90;;;;;;4956295;28;20038;-80
2024/03/13 03:51:54;;;;;;;1.23;1.15;;;6.90;99.90;;;;;;4969427;28;20030;-80
2024/03/13 03:54:21;;;;;;;0.80;0.80;;;6.90;99.90;;;;;;4951990;28;20035;-79
2024/03/13 03:56:48;;;;;;;0.60;0.52;;;6.90;99.90;;;;;;4937292;28;20035;-79
2024/03/13 03:59:15;;;;;;;1.08;1.00;;;6.90;99.90;;;;;;4955720;28;20034;-80
2024/03/13 04:01:43;;;;;;;0.80;0.80;;;6.90;99.90;;;;;;4964827;28;20035;-80
2024/03/13 04:04:13;;;;;;;0.55;0.52;;;6.90;99.90;;;;;;4947754;28;20382;-80
2024/03/13 04:06:41;;;;;;;1.20;1.00;;;6.90;99.90;;;;;;4953371;28;20392;-80
2024/03/13 04:09:14;;;;;;;0.55;0.55;;;6.90;99.90;;;;;;4953779;28;20031;-79
2024/03/13 04:11:42;;;;;;;0.50;0.50;;;6.90;99.90;;;;;;4943950;28;20039;-80
2024/03/13 04:14:10;;;;;;;2.05;1.20;;;6.90;99.90;;;;;;4960843;28;20055;-80
2024/03/13 04:16:38;;;;;;;0.40;0.30;;;6.90;99.90;;;;;;4962844;28;20031;-80
2024/03/13 04:19:06;;;;;;;0.60;0.60;;;6.90;99.90;;;;;;4967508;28;20370;-79
2024/03/13 04:21:32;;;;;;;0.60;0.60;;;6.90;99.90;;;;;;4949381;28;20042;-80
2024/03/13 04:24:00;;;;;;;0.77;0.77;;;6.90;99.90;;;;;;4953598;28;20039;-80
2024/03/13 04:26:29;;;;;;;0.65;0.65;;;6.90;99.90;;;;;;4941174;28;20039;-80
2024/03/13 04:28:58;;;;;;;1.15;1.00;;;7.00;99.90;;;;;;4943664;28;20385;-79
2024/03/13 04:31:25;;;;;;;1.50;1.40;;;7.00;99.90;;;;;;4954683;28;20039;-80
2024/03/13 04:33:51;;;;;;;1.20;0.63;;;7.00;99.90;;;;;;4966405;28;20027;-80
2024/03/13 04:36:17;;;;;;;0.50;0.50;;;7.00;99.90;;;;;;4949203;28;20050;-80
2024/03/13 04:38:50;;;;;;;0.30;0.30;;;7.00;99.90;;;;;;4952618;28;20047;-81
2024/03/13 04:41:19;;;;;;;0.40;0.35;;;7.00;99.90;;;;;;4956764;28;20043;-80
2024/03/13 04:43:46;;;;;;;0.98;0.95;;;7.00;99.90;;;;;;4961213;28;20070;-80
2024/03/13 04:46:16;;;;;;;1.38;1.27;;;7.00;99.90;;;;;;4960736;28;20046;-81
2024/03/13 04:48:47;;;;;;;0.32;0.32;;;7.00;99.90;;;;;;4934713;28;20043;-81
2024/03/13 04:51:16;;;;;;;0.50;0.50;;;7.00;99.90;;;;;;4964516;28;20043;-81
2024/03/13 04:53:45;;;;;;;1.45;1.35;;;7.00;99.90;;;;;;4947964;28;20046;-81
2024/03/13 04:56:11;;;;;;;0.50;0.50;;;7.00;99.90;;;;;;4951127;28;20377;-81
2024/03/13 04:58:38;;;;;;;0.30;0.30;;;7.00;99.90;;;;;;4961145;28;20035;-82
2024/03/13 05:01:04;;;;;;;1.98;1.13;;;7.00;99.90;;;;;;4933087;28;20035;-80
2024/03/13 05:03:30;;;;;;;0.20;0.20;;;7.00;99.90;;;;;;4966298;28;20046;-81
2024/03/13 05:05:57;;;;;;;0.70;0.70;;;7.00;99.90;;;;;;4965372;28;20050;-80
2024/03/13 05:08:23;;;;;;;0.60;0.50;;;7.00;99.90;;;;;;4965251;28;20031;-80
2024/03/13 05:10:49;;;;;;;0.47;0.47;;;7.10;99.90;;;;;;4959572;28;20380;-80
2024/03/13 05:13:15;;;;;;;1.08;0.88;;;7.10;99.90;;;;;;4957610;28;20039;-81
2024/03/13 05:15:43;;;;;;;0.55;0.55;;;7.10;99.90;;;;;;4964396;28;20038;-79
2024/03/13 05:18:09;;;;;;;0.50;0.50;;;7.10;99.90;;;;;;4961350;28;20027;-79
2024/03/13 05:20:36;;;;;;;0.40;0.40;;;7.10;99.90;;;;;;4961911;28;20031;-81
2024/03/13 05:23:06;;;;;;;1.33;1.23;;;7.10;99.90;;;;;;4942325;28;20033;-80
2024/03/13 05:25:32;;;;;;;0.40;0.40;;;7.10;99.90;;;;;;4961658;28;20039;-80
2024/03/13 05:27:58;;;;;;;1.02;0.93;;;7.10;99.90;;;;;;4962492;28;20046;-81
2024/03/13 05:30:24;;;;;;;1.52;0.95;;;7.10;99.90;;;;;;4958822;28;20476;-81
2024/03/13 05:32:51;;;;;;;2.20;1.25;;;7.10;99.90;;;;;;4966348;28;20050;-81
2024/03/13 05:35:17;;;;;;;0.63;0.63;;;7.10;99.90;;;;;;4965421;28;20043;-80
2024/03/13 05:37:43;;;;;;;0.50;0.50;;;7.10;99.90;;;;;;4965568;28;20116;-80
2024/03/13 05:40:19;;;;;;;1.48;1.40;;;7.10;99.90;;;;;;4962167;28;20600;-77
2024/03/13 05:42:46;;;;;;;0.75;0.75;;;7.10;99.90;;;;;;4966071;28;20065;-81
2024/03/13 05:45:15;;;;;;;0.65;0.45;;;7.10;99.90;;;;;;4962855;28;20058;-81
2024/03/13 05:47:41;;;;;;;3.35;2.22;;;7.20;99.90;;;;;;4960038;28;20027;-81
2024/03/13 05:50:10;;;;;;;0.73;0.73;;;7.10;99.90;;;;;;4961582;28;20054;-77
2024/03/13 05:52:36;;;;;;;1.55;1.45;;;7.20;99.90;;;;;;4964055;28;20038;-81
2024/03/13 05:55:02;;;;;;;3.08;1.65;;;7.20;99.90;;;;;;4946439;28;20059;-80
2024/03/13 05:57:29;;;;;;;1.33;1.23;;;7.20;99.90;;;;;;4962142;28;20031;-82
2024/03/13 05:59:56;;;;;;;0.80;0.80;;;7.20;99.90;;;;;;4959573;28;20038;-81
2024/03/13 06:02:22;;;;;;;0.95;0.93;;;7.20;99.90;;;;;;4960733;28;20035;-82
2024/03/13 06:04:49;;;;;;;1.30;1.25;;;7.20;99.90;;;;;;4964887;28;20050;-81
2024/03/13 06:07:15;;;;;;;1.42;1.27;;;7.20;99.90;;;;;;4964373;28;20484;-82
2024/03/13 06:09:42;;;;;;;1.30;1.20;;;7.20;99.90;;;;;;4970706;28;20042;-81
2024/03/13 06:12:08;;;;;;;0.70;0.70;;;7.20;99.90;;;;;;4964314;28;20038;-79
2024/03/13 06:14:34;;;;;;;2.63;1.52;;;7.20;99.90;;;;;;4965208;28;20027;-82
2024/03/13 06:17:01;;;;;;;1.70;1.60;;;7.30;99.90;;;;;;4962041;28;20031;-80
2024/03/13 06:19:27;;;;;;;3.05;2.05;;;7.30;99.90;;;;;;4965159;28;20030;-82
2024/03/13 06:21:53;;;;;;;0.80;0.80;;;7.30;99.90;;;;;;4964912;28;20058;-80
2024/03/13 06:24:32;;;;;;;0.30;0.30;;;7.40;99.90;;;;;;4962251;28;20049;-82
2024/03/13 06:27:05;;;;;;;2.10;1.90;;;7.30;99.90;;;;;;4960132;28;20040;-81
2024/03/13 06:32:16;;;;;;;2.50;2.25;;;7.40;99.90;;;;;;4960692;28;20397;-81
2024/03/13 06:34:42;;;;;;;1.77;1.40;;;7.40;99.90;;;;;;4966426;28;20491;-82
2024/03/13 06:37:09;;;;;;;2.65;1.52;;;7.40;99.90;;;;;;4963548;28;20030;-82
2024/03/13 06:39:35;;;;;;;0.70;0.70;;;7.40;99.90;;;;;;4964282;28;20408;-81
2024/03/13 06:42:02;;;;;;;1.48;1.42;;;7.50;99.90;;;;;;4958565;28;20047;-80
2024/03/13 06:44:28;;;;;;;2.38;1.15;;;7.50;99.90;;;;;;4958488;28;20046;-82
2024/03/13 06:46:54;;;;;;;2.10;1.90;;;7.50;99.90;;;;;;4962541;28;20044;-81
2024/03/13 06:49:20;;;;;;;0.55;0.55;;;7.60;99.90;;;;;;4962206;28;20492;-82
2024/03/13 06:51:46;;;;;;;3.10;2.30;;;7.60;99.90;;;;;;4965145;28;20397;-81
2024/03/13 06:54:12;;;;;;;1.13;0.55;;;7.60;99.90;;;;;;4964517;28;20039;-77
2024/03/13 06:56:39;;;;;;;1.23;1.17;;;7.60;99.90;;;;;;4960464;28;20062;-82
2024/03/13 06:59:06;;;;;;;4.43;0.95;;;7.70;99.90;;;;;;4962329;28;20380;-81
2024/03/13 07:01:32;;;;;;;2.17;1.00;;;7.70;99.90;;;;;;4963011;28;20613;-82
2024/03/13 07:03:58;;;;;;;2.15;1.98;;;7.80;99.90;;;;;;4968800;28;20035;-80
2024/03/13 07:06:25;;;;;;;0.55;0.55;;;7.80;99.90;;;;;;4966115;28;20039;-81
2024/03/13 07:08:51;;;;;;;0.45;0.45;;;7.80;99.90;;;;;;4960711;28;20042;-81
2024/03/13 07:11:17;;;;;;;3.30;1.92;;;7.80;99.90;;;;;;4962415;28;20038;-81
2024/03/13 07:13:43;;;;;;;0.90;0.90;;;7.80;99.90;;;;;;4961781;28;20042;-79
2024/03/13 07:16:10;;;;;;;4.15;2.17;;;7.80;99.90;;;;;;4930724;28;20050;-79
2024/03/13 07:18:36;;;;;;;1.30;1.20;;;7.80;99.90;;;;;;4949678;28;20053;-78
2024/03/13 07:21:03;;;;;;;2.17;0.80;;;7.80;99.90;;;;;;4966444;28;20038;-79
2024/03/13 07:23:29;;;;;;;3.58;2.13;;;7.80;99.90;;;;;;4965477;28;20499;-79
2024/03/13 07:25:56;;;;;;;1.08;0.88;;;7.90;99.90;;;;;;4963230;28;20062;-79
2024/03/13 07:28:22;;;;;;;1.95;1.38;;;7.90;99.90;;;;;;4959314;28;20038;-80
2024/03/13 07:30:48;;;;;;;0.68;0.68;;;7.80;99.90;;;;;;4963275;28;20035;-80
2024/03/13 07:33:15;;;;;;;3.80;2.05;;;7.80;99.90;;;;;;4961955;28;20453;-75
2024/03/13 07:35:42;;;;;;;1.05;0.80;;;7.80;99.90;;;;;;4966561;28;20041;-74
2024/03/13 07:38:11;;;;;;;0.85;0.85;;;7.90;99.90;;;;;;4966787;28;20027;-75
2024/03/13 07:40:39;;;;;;;1.50;1.23;;;7.90;99.90;;;;;;4970278;28;20045;-75
2024/03/13 07:43:09;;;;;;;1.55;1.45;;;8.00;99.90;;;;;;4965688;28;20050;-74
2024/03/13 07:45:42;;;;;;;0.95;0.85;;;8.00;99.90;;;;;;4961313;28;20035;-75
2024/03/13 07:48:09;;;;;;;3.13;1.58;;;8.10;99.90;;;;;;4966439;28;20070;-75
2024/03/13 07:50:38;;;;;;;0.40;0.40;;;8.10;99.90;;;;;;4967839;28;20034;-75
2024/03/13 07:53:08;;;;;;;1.27;1.17;;;8.10;99.90;;;;;;4966154;28;20038;-75
2024/03/13 07:55:36;;;;;;;3.67;2.15;;;8.20;99.90;;;;;;4963837;28;20524;-74
2024/03/13 07:58:03;;;;;;;2.60;2.38;;;8.30;99.90;;;;;;4955454;28;20057;-74
2024/03/13 08:00:29;;;;;;;4.05;3.70;;;8.40;99.90;;;;;;4960121;28;20039;-75
2024/03/13 08:02:56;;;;;;;1.80;1.70;;;8.40;99.90;;;;;;4969647;28;20031;-75
2024/03/13 08:05:22;;;;;;;1.23;1.13;;;8.50;99.90;;;;;;4966183;28;20110;-75
2024/03/13 08:07:49;;;;;;;1.17;1.08;;;8.60;99.90;;;;;;4968032;28;20054;-74
2024/03/13 08:10:21;;;;;;;0.57;0.57;;;8.50;99.90;;;;;;4964005;28;20380;-75
2024/03/13 08:12:47;;;;;;;1.20;0.75;;;8.40;99.90;;;;;;4961096;28;20043;-74
2024/03/13 08:15:13;;;;;;;0.82;0.73;;;8.40;99.90;;;;;;4966098;28;20047;-75
2024/03/13 08:17:40;;;;;;;1.05;0.88;;;8.60;99.90;;;;;;4966469;28;20035;-76
2024/03/13 08:20:07;;;;;;;2.17;1.33;;;8.60;99.90;;;;;;4963401;28;20042;-75
2024/03/13 08:22:33;;;;;;;1.55;1.13;;;8.50;99.90;;;;;;4965850;28;20026;-75
2024/03/13 08:25:00;;;;;;;0.68;0.68;;;8.50;99.90;;;;;;4967408;28;20050;-76
2024/03/13 08:27:26;;;;;;;1.02;1.00;;;8.40;99.90;;;;;;4964841;28;20095;-75
2024/03/13 08:29:53;;;;;;;0.73;0.73;;;8.50;99.90;;;;;;4962132;28;20042;-75
2024/03/13 08:32:19;;;;;;;1.33;1.20;;;8.60;99.90;;;;;;4962595;28;20030;-75
2024/03/13 08:34:46;;;;;;;1.05;0.60;;;8.50;99.90;;;;;;4965783;28;20473;-75
2024/03/13 08:37:12;;;;;;;1.10;0.80;;;8.50;99.90;;;;;;4966908;28;20404;-75
2024/03/13 08:39:38;;;;;;;1.05;0.98;;;8.60;99.90;;;;;;4965865;28;20035;-74
2024/03/13 08:42:04;;;;;;;1.30;1.00;;;8.70;99.90;;;;;;4959927;28;20046;-74
2024/03/13 08:44:31;;;;;;;1.58;1.38;;;8.70;99.90;;;;;;4959338;28;20038;-74
2024/03/13 08:46:57;;;;;;;3.47;1.00;;;8.80;99.90;;;;;;4966342;28;20050;-75
2024/03/13 08:49:24;;;;;;;1.15;1.10;;;9.00;99.90;;;;;;4963780;28;20046;-74
2024/03/13 08:51:53;;;;;;;2.35;1.60;;;8.70;99.90;;;;;;4965560;28;20400;-75
2024/03/13 08:54:19;;;;;;;0.98;0.93;;;8.80;99.90;;;;;;4964639;28;20035;-74
2024/03/13 08:56:46;;;;;;;0.50;0.50;;;8.80;99.90;;;;;;4964326;28;20050;-75
2024/03/13 08:59:13;;;;;;;2.80;1.42;;;9.00;99.90;;;;;;4961536;28;20035;-75
2024/03/13 09:01:41;;;;;;;0.88;0.88;;;9.00;99.90;;;;;;4961019;28;20035;-74
2024/03/13 09:04:09;;;;;;;0.40;0.40;;;9.10;99.90;;;;;;4967417;28;20050;-75
2024/03/13 09:06:36;;;;;;;1.95;1.55;;;9.30;99.90;;;;;;4965527;28;20050;-74
2024/03/13 09:09:09;;;;;;;1.35;1.25;;;9.30;99.90;;;;;;4963760;28;20039;-74
2024/03/13 09:11:35;;;;;;;0.75;0.75;;;9.20;99.90;;;;;;4961663;28;20046;-74
2024/03/13 09:14:03;;;;;;;1.13;0.93;;;9.30;99.90;;;;;;4960443;28;20035;-75
2024/03/13 09:16:35;;;;;;;2.00;1.85;;;9.20;99.90;;;;;;4964028;28;20485;-75
2024/03/13 09:19:02;;;;;;;2.38;1.10;;;9.20;99.90;;;;;;4963672;28;20377;-74
2024/03/13 09:21:28;;;;;;;0.88;0.80;;;9.10;99.90;;;;;;4949842;28;20045;-75
2024/03/13 09:23:54;;;;;;;2.15;1.20;;;9.20;99.90;;;;;;4946246;28;20051;-74
2024/03/13 09:26:20;;;;;;;0.60;0.38;;;9.20;99.90;;;;;;4963791;28;20039;-74
2024/03/13 09:28:46;;;;;;;0.55;0.55;;;9.20;99.90;;;;;;4960372;28;20027;-75
2024/03/13 09:31:13;;;;;;;3.95;2.38;;;9.20;99.90;;;;;;4965213;28;20388;-75
2024/03/13 09:33:39;;;;;;;0.40;0.40;;;9.40;99.90;;;;;;4965754;28;20034;-75
2024/03/13 09:36:15;;;;;;;0.90;0.90;;;9.50;99.90;;;;;;4967345;28;20099;-75
2024/03/13 09:38:41;;;;;;;3.15;1.17;;;9.70;99.90;;;;;;4961738;28;20038;-74
2024/03/13 09:41:11;;;;;;;1.17;0.90;;;9.70;99.90;;;;;;4961822;28;20031;-75
2024/03/13 09:43:38;;;;;;;1.73;1.05;;;9.80;90.50;;;;;;4961242;28;20082;-76
2024/03/13 09:46:06;;;;;;;3.95;0.77;;;9.90;13.90;;;;;;4963732;28;20050;-75
2024/03/13 09:48:37;;;;;;;0.70;0.70;;;9.90;1.00;;;;;;4965179;28;20034;-74
2024/03/13 09:51:04;;;;;;;1.38;0.85;;;9.80;99.90;;;;;;4965818;28;20035;-75
2024/03/13 09:53:31;;;;;;;1.92;1.77;;;10.00;99.90;;;;;;4965074;28;20460;-76
2024/03/13 09:55:57;;;;;;;1.02;0.95;;;10.20;99.90;;;;;;4960846;28;20042;-75
2024/03/13 09:58:25;;;;;;;1.30;1.20;;;10.40;99.90;;;;;;4957423;28;20041;-75
2024/03/13 10:00:56;;;;;;;0.55;0.47;;;10.50;99.90;;;;;;4963822;28;20472;-74
2024/03/13 10:03:29;;;;;;;1.38;1.20;;;10.40;99.90;;;;;;4963879;28;20035;-75
2024/03/13 10:06:05;;;;;;;1.30;1.20;;;10.30;99.90;;;;;;4965161;28;20043;-75
2024/03/13 10:08:34;;;;;;;0.73;0.73;;;10.20;99.90;;;;;;4962993;28;20396;-74
2024/03/13 10:11:01;;;;;;;1.27;1.17;;;10.20;99.90;;;;;;4959753;28;20043;-74
2024/03/13 10:13:29;;;;;;;2.15;0.50;;;10.40;99.90;;;;;;4962849;28;20043;-74
2024/03/13 10:15:57;;;;;;;1.65;1.13;;;10.30;99.90;;;;;;4962205;28;20045;-74
2024/03/13 10:18:24;;;;;;;1.05;1.05;;;10.30;99.90;;;;;;4964821;28;20035;-73
2024/03/13 10:21:24;;;;;;;0.40;0.40;;;10.30;99.90;;;;;;4965716;28;20381;-74
2024/03/13 10:23:52;;;;;;;1.17;0.70;;;10.20;99.90;;;;;;4962817;28;20048;-74
2024/03/13 10:26:21;;;;;;;0.65;0.65;;;10.20;99.90;;;;;;4963998;28;20388;-74
2024/03/13 10:28:48;;;;;;;1.88;0.77;;;10.20;99.90;;;;;;4958717;28;20046;-74
2024/03/13 10:31:16;;;;;;;0.57;0.57;;;10.30;99.90;;;;;;4960315;28;20480;-74
2024/03/13 10:33:42;;;;;;;2.22;1.30;;;10.40;99.90;;;;;;4965039;28;20027;-74
2024/03/13 10:36:11;;;;;;;2.65;1.10;;;10.60;99.90;;;;;;4948756;28;20053;-75
2024/03/13 10:38:37;;;;;;;1.75;0.95;;;10.70;99.90;;;;;;4978928;28;20041;-74
2024/03/13 10:41:04;;;;;;;1.17;1.00;;;10.90;99.90;;;;;;4967440;28;20044;-74
2024/03/13 10:43:31;;;;;;;10.35;1.92;;;10.90;99.90;;;;;;4962809;28;20062;-74
2024/03/13 10:45:57;;;;;;;4.50;1.50;;;10.60;99.90;;;;;;4958098;28;20058;-75
2024/03/13 10:48:24;;;;;;;1.40;0.93;;;10.50;99.90;;;;;;4964081;28;20040;-74
2024/03/13 10:50:50;;;;;;;0.80;0.75;;;10.60;99.90;;;;;;4968092;28;20031;-77
2024/03/13 10:53:19;;;;;;;0.40;0.40;;;10.70;99.90;;;;;;4964608;28;20039;-77
2024/03/13 10:55:45;;;;;;;1.55;1.33;;;10.90;99.90;;;;;;4964124;28;20039;-74
2024/03/13 10:58:22;;;;;;;1.17;1.08;;;11.00;99.90;;;;;;4962593;28;20551;-74
2024/03/13 11:00:49;;;;;;;1.73;1.20;;;11.10;99.90;;;;;;4964253;28;20032;-74
2024/03/13 11:03:16;;;;;;;2.25;0.88;;;11.10;99.90;;;;;;4968152;28;20041;-76
2024/03/13 11:05:43;;;;;;;0.40;0.40;;;11.00;99.90;;;;;;4968162;28;20427;-76
2024/03/13 11:08:12;;;;;;;0.98;0.93;;;11.00;99.90;;;;;;4967842;28;20038;-76
2024/03/13 11:10:38;;;;;;;1.95;0.85;;;11.00;99.90;;;;;;4948698;28;20042;-76
2024/03/13 11:13:05;;;;;;;2.85;2.25;;;11.00;99.90;;;;;;4967148;28;20086;-76
2024/03/13 11:15:35;;;;;;;2.15;1.38;;;11.20;99.90;;;;;;4964630;28;20031;-75
2024/03/13 11:18:04;;;;;;;1.52;1.05;;;11.30;99.90;;;;;;4966079;28;20035;-76
2024/03/13 11:20:39;;;;;;;0.83;0.83;;;11.40;99.90;;;;;;4967301;28;20035;-76
2024/03/13 11:23:23;;;;;;;1.08;1.08;;;11.60;99.90;;;;;;4967389;28;20478;-76
2024/03/13 11:25:51;;;;;;;8.82;1.50;;;11.70;99.90;;;;;;4963429;28;20380;-75
2024/03/13 11:28:37;;;;;;;2.63;1.88;;;11.70;99.90;;;;;;4960146;28;20027;-76
2024/03/13 11:31:06;;;;;;;0.60;0.60;;;11.60;99.90;;;;;;4967352;28;20046;-76
2024/03/13 11:33:32;;;;;;;1.30;1.02;;;11.60;99.90;;;;;;4966664;28;20047;-76
2024/03/13 11:36:00;;;;;;;1.55;1.00;;;11.60;99.90;;;;;;4968311;28;20046;-76
2024/03/13 11:38:29;;;;;;;1.30;1.20;;;11.60;99.90;;;;;;4962612;28;20484;-76
2024/03/13 11:40:56;;;;;;;3.13;1.02;;;11.50;99.90;;;;;;4950485;28;20039;-76
2024/03/13 11:43:25;;;;;;;1.92;1.17;;;11.40;99.90;;;;;;4963020;28;20053;-76
2024/03/13 11:45:54;;;;;;;0.65;0.50;;;11.30;99.90;;;;;;4965931;28;20050;-76
2024/03/13 11:48:21;;;;;;;4.65;0.88;;;11.10;99.90;;;;;;4968270;28;20046;-76
2024/03/13 11:51:06;;;;;;;1.23;0.90;;;11.10;99.90;;;;;;4953883;28;20058;-76
2024/03/13 11:53:35;;;;;;;0.70;0.57;;;11.00;99.90;;;;;;4966243;28;20050;-75
2024/03/13 11:56:20;;;;;;;7.53;2.33;;;11.00;99.90;;;;;;4963808;28;20357;-76
2024/03/13 11:58:46;;;;;;;1.00;0.70;;;10.80;99.90;;;;;;4960513;28;20035;-76
2024/03/13 12:01:13;;;;;;;2.92;1.80;;;10.80;99.90;;;;;;4965900;28;20123;-76
2024/03/13 12:03:42;;;;;;;0.57;0.57;;;10.80;1.00;;;;;;4965322;28;20043;-76
2024/03/13 12:06:23;;;;;;;1.15;1.05;;;10.90;1.00;;;;;;4969993;28;20477;-76
2024/03/13 12:08:52;;;;;;;1.25;1.15;;;11.10;1.00;;;;;;4965376;28;20365;-76
2024/03/13 12:11:19;;;;;;;1.75;1.65;;;11.30;99.90;;;;;;4960506;28;20377;-76
2024/03/13 12:13:46;;;;;;;0.73;0.57;;;11.50;1.00;;;;;;4969615;28;20034;-76
2024/03/13 12:16:16;;;;;;;0.95;0.95;;;11.80;99.90;;;;;;4963398;28;20038;-76
2024/03/13 12:18:54;;;;;;;0.98;0.98;;;11.60;99.90;;;;;;4965720;28;20047;-76
2024/03/13 12:21:23;;;;;;;2.80;1.65;;;11.60;99.90;;;;;;4966658;28;20034;-76
2024/03/13 12:23:49;;;;;;;1.13;1.00;;;11.60;99.90;;;;;;4966987;28;20054;-76
2024/03/13 12:26:17;;;;;;;1.08;0.98;;;11.50;99.90;;;;;;4966076;28;20043;-76
2024/03/13 12:28:44;;;;;;;2.75;2.17;;;11.40;99.90;;;;;;4961954;28;20412;-76
2024/03/13 12:31:11;;;;;;;2.10;0.73;;;11.50;99.90;;;;;;4960534;28;20031;-76
2024/03/13 12:33:38;;;;;;;4.28;1.35;;;11.50;99.90;;;;;;4966090;28;20047;-76
2024/03/13 12:36:04;;;;;;;1.00;0.90;;;11.60;99.90;;;;;;4967489;28;20054;-76
2024/03/13 12:38:38;;;;;;;1.25;1.15;;;11.60;99.90;;;;;;4967056;28;20050;-75
2024/03/13 12:41:07;;;;;;;2.70;1.80;;;11.60;99.90;;;;;;4963712;28;20041;-76
2024/03/13 12:43:33;;;;;;;1.23;1.13;;;11.70;99.90;;;;;;4961166;28;20059;-76
2024/03/13 12:46:02;;;;;;;1.38;1.27;;;11.90;99.90;;;;;;4962889;28;20050;-76
2024/03/13 12:48:30;;;;;;;0.73;0.73;;;12.00;99.90;;;;;;4964102;28;20046;-76
2024/03/13 12:50:58;;;;;;;1.52;1.42;;;12.20;99.90;;;;;;4966109;28;20031;-76
2024/03/13 12:53:29;;;;;;;1.58;1.45;;;12.30;99.90;;;;;;4965408;28;20042;-76
2024/03/13 12:55:56;;;;;;;0.55;0.55;;;12.30;99.90;;;;;;4966003;28;20043;-77
2024/03/13 12:58:25;;;;;;;1.00;0.98;;;12.30;99.90;;;;;;4960865;28;20050;-76
2024/03/13 13:00:51;;;;;;;0.60;0.60;;;12.10;99.90;;;;;;4959436;28;20035;-74
2024/03/13 13:03:18;;;;;;;1.38;0.60;;;11.80;99.90;;;;;;4966563;28;20043;-74
2024/03/13 13:05:44;;;;;;;2.05;1.50;;;11.60;99.90;;;;;;4966142;28;20034;-74
2024/03/13 13:08:13;;;;;;;0.60;0.60;;;11.60;99.90;;;;;;4968738;28;20039;-74
2024/03/13 13:10:40;;;;;;;0.98;0.90;;;11.60;99.90;;;;;;4959865;28;20042;-73
2024/03/13 13:13:07;;;;;;;0.50;0.50;;;11.70;99.90;;;;;;4963011;28;20031;-76
2024/03/13 13:15:35;;;;;;;1.10;1.00;;;11.80;99.90;;;;;;4961921;28;20035;-73
2024/03/13 13:18:01;;;;;;;0.82;0.77;;;11.90;99.90;;;;;;4965240;28;20042;-76
2024/03/13 13:20:33;;;;;;;1.88;1.08;;;12.00;99.90;;;;;;4964763;28;20027;-73
2024/03/13 13:22:59;;;;;;;1.20;1.13;;;11.90;99.90;;;;;;4944207;28;20386;-73